This is the latest recevied weather packets stored in our database for station/object EA1IXY-2. If no packets are shown the sender has not sent any weather packets the latest 10 day(s).
| Time | Temp. | Humidity | Pressure | Rain* | Wind** | Luminosity | Snow |
|---|---|---|---|---|---|---|---|
| 1777846399 | 37.78° C | 17% | 927.9 hPa | - | - | - | - |
| 1777845499 | 37.78° C | 18% | 927.9 hPa | - | - | - | - |
| 1777844599 | 38.33° C | 17% | 927.9 hPa | - | - | - | - |
| 1777843699 | 37.78° C | 18% | 927.9 hPa | - | - | - | - |
| 1777842798 | 38.33° C | 17% | 927.9 hPa | - | - | - | - |
| 1777841898 | 37.78° C | 18% | 927.8 hPa | - | - | - | - |
| 1777840998 | 37.78° C | 17% | 927.6 hPa | - | - | - | - |
| 1777840098 | 37.78° C | 18% | 927.5 hPa | - | - | - | - |
| 1777839198 | 37.78° C | 17% | 927.2 hPa | - | - | - | - |
| 1777838298 | 37.78° C | 17% | 927.1 hPa | - | - | - | - |
| 1777837398 | 37.78° C | 17% | 927.1 hPa | - | - | - | - |
| 1777836498 | 36.67° C | 17% | 925.8 hPa | - | - | - | - |
| 1777835586 | 37.78° C | 17% | 926.8 hPa | - | - | - | - |
| 1777834686 | 37.78° C | 17% | 926.7 hPa | - | - | - | - |
| 1777833786 | 37.78° C | 17% | 926.5 hPa | - | - | - | - |
| 1777832885 | 37.78° C | 18% | 926.6 hPa | - | - | - | - |
| 1777831985 | 37.78° C | 17% | 926.5 hPa | - | - | - | - |
| 1777831085 | 37.78° C | 17% | 926.4 hPa | - | - | - | - |
| 1777830185 | 37.78° C | 18% | 926.4 hPa | - | - | - | - |
| 1777829285 | 37.78° C | 17% | 926.2 hPa | - | - | - | - |
| 1777828385 | 37.78° C | 17% | 926.3 hPa | - | - | - | - |
| 1777827485 | 37.78° C | 17% | 926.1 hPa | - | - | - | - |
| 1777826585 | 37.78° C | 17% | 926.2 hPa | - | - | - | - |
| 1777825685 | 37.22° C | 17% | 925 hPa | - | - | - | - |
| 1777824773 | 38.33° C | 17% | 926.2 hPa | - | - | - | - |
* Rain since midnight (hover to see other rain measurements)
** Current wind speed in m/s (hover to see current wind gust speed)